createdAt,value
2023-04-01T00:00:19.445Z,30.050
2023-04-01T00:05:19.429Z,30.046
2023-04-01T00:10:19.444Z,30.043
2023-04-01T00:15:19.388Z,30.044
2023-04-01T00:20:19.422Z,30.045
2023-04-01T00:25:16.310Z,30.044
2023-04-01T00:30:16.511Z,30.045
2023-04-01T00:35:17.078Z,30.046
2023-04-01T00:40:16.516Z,30.045
2023-04-01T00:45:16.512Z,30.045
2023-04-01T00:50:19.477Z,30.040
2023-04-01T00:55:19.426Z,30.040
2023-04-01T01:00:19.422Z,30.036
2023-04-01T01:05:19.430Z,30.042
2023-04-01T01:10:16.536Z,30.043
2023-04-01T01:15:16.472Z,30.046
2023-04-01T01:20:25.954Z,30.049
2023-04-01T01:25:19.482Z,30.040
2023-04-01T01:30:19.570Z,30.038
2023-04-01T01:35:19.511Z,30.029
2023-04-01T01:40:19.496Z,30.029
2023-04-01T01:45:19.458Z,30.027
2023-04-01T01:50:19.426Z,30.025
2023-04-01T01:55:19.496Z,30.024
2023-04-01T02:00:19.449Z,30.023
2023-04-01T02:05:16.495Z,30.017
2023-04-01T02:10:19.482Z,30.008
2023-04-01T02:15:16.544Z,30.006
2023-04-01T02:20:19.607Z,30.017
2023-04-01T02:25:19.458Z,30.019
2023-04-01T02:30:19.516Z,30.006
2023-04-01T02:35:19.495Z,30.003
2023-04-01T02:40:19.460Z,30.007
2023-04-01T02:45:16.540Z,29.997
2023-04-01T02:50:16.638Z,29.994
2023-04-01T02:55:19.515Z,29.984
2023-04-01T03:00:19.506Z,29.982
2023-04-01T03:05:19.578Z,29.972
2023-04-01T03:10:19.570Z,29.965
2023-04-01T03:15:19.518Z,29.957
2023-04-01T03:20:16.614Z,29.955
2023-04-01T03:25:19.640Z,29.953
2023-04-01T03:30:16.639Z,29.950
2023-04-01T03:35:16.556Z,29.944
2023-04-01T03:40:19.540Z,29.936
2023-04-01T03:45:16.502Z,29.931
2023-04-01T03:50:19.628Z,29.922
2023-04-01T03:55:19.601Z,29.920
2023-04-01T04:00:18.780Z,29.914
2023-04-01T04:05:15.857Z,29.911
2023-04-01T04:10:15.644Z,29.900
2023-04-01T04:15:18.790Z,29.897
2023-04-01T04:20:18.834Z,29.895
2023-04-01T04:25:15.860Z,29.893
2023-04-01T04:30:18.830Z,29.887
2023-04-01T04:35:15.730Z,29.889
2023-04-01T04:40:15.844Z,29.886
2023-04-01T04:45:18.811Z,29.880
2023-04-01T04:50:18.793Z,29.879
2023-04-01T04:55:18.796Z,29.877
2023-04-01T05:00:15.861Z,29.874
2023-04-01T05:05:18.901Z,29.868
2023-04-01T05:10:18.801Z,29.864
2023-04-01T05:15:18.837Z,29.860
2023-04-01T05:20:15.842Z,29.857
2023-04-01T05:25:18.885Z,29.855
2023-04-01T05:30:18.926Z,29.851
2023-04-01T05:35:18.788Z,29.846
2023-04-01T05:40:15.865Z,29.844
2023-04-01T05:45:18.896Z,29.842
2023-04-01T05:50:18.844Z,29.844
2023-04-01T05:55:18.829Z,29.838
2023-04-01T06:00:15.851Z,29.832
2023-04-01T06:05:18.852Z,29.828
2023-04-01T06:10:18.921Z,29.824
2023-04-01T06:15:18.879Z,29.819
2023-04-01T06:20:15.929Z,29.815
2023-04-01T06:25:18.915Z,29.817
2023-04-01T06:30:15.746Z,29.810
2023-04-01T06:35:15.981Z,29.807
2023-04-01T06:40:18.895Z,29.809
2023-04-01T06:45:15.921Z,29.806
2023-04-01T06:50:18.892Z,29.804
2023-04-01T06:55:19.583Z,29.805
2023-04-01T07:00:18.845Z,29.801
2023-04-01T07:05:15.881Z,29.798
2023-04-01T07:10:18.971Z,29.795
2023-04-01T07:15:18.888Z,29.791
2023-04-01T07:20:18.903Z,29.786
2023-04-01T07:25:15.932Z,29.776
2023-04-01T07:30:15.986Z,29.772
2023-04-01T07:35:19.001Z,29.768
2023-04-01T07:40:18.952Z,29.763
2023-04-01T07:45:18.872Z,29.760
2023-04-01T07:50:15.961Z,29.754
2023-04-01T07:55:15.948Z,29.752
2023-04-01T08:00:18.923Z,29.743
2023-04-01T08:05:18.901Z,29.748
2023-04-01T08:10:18.932Z,29.750
2023-04-01T08:15:15.926Z,29.747
2023-04-01T08:20:16.030Z,29.737
2023-04-01T08:25:19.063Z,29.739
2023-04-01T08:30:18.968Z,29.737
2023-04-01T08:35:18.924Z,29.732
2023-04-01T08:40:19.023Z,29.722
2023-04-01T08:45:15.976Z,29.713
2023-04-01T08:50:15.988Z,29.716
2023-04-01T08:55:18.980Z,29.716
2023-04-01T09:00:18.961Z,29.729
2023-04-01T09:05:18.967Z,29.728
2023-04-01T09:10:19.035Z,29.724
2023-04-01T09:15:18.907Z,29.727
2023-04-01T09:20:15.974Z,29.722
2023-04-01T09:25:15.954Z,29.717
2023-04-01T09:30:19.126Z,29.714
2023-04-01T09:35:18.995Z,29.704
2023-04-01T09:40:19.018Z,29.702
2023-04-01T09:45:19.000Z,29.702
2023-04-01T09:50:15.967Z,29.700
2023-04-01T09:55:16.072Z,29.695
2023-04-01T10:00:16.063Z,29.690
2023-04-01T10:05:16.058Z,29.686
2023-04-01T10:10:19.040Z,29.681
2023-04-01T10:15:19.139Z,29.679
2023-04-01T10:20:19.029Z,29.671
2023-04-01T10:25:18.993Z,29.667
2023-04-01T10:30:19.007Z,29.666
2023-04-01T10:35:15.992Z,29.667
2023-04-01T10:40:16.233Z,29.655
2023-04-01T10:45:19.011Z,29.646
2023-04-01T10:50:19.027Z,29.641
2023-04-01T10:55:18.963Z,29.645
2023-04-01T11:00:18.984Z,29.645
2023-04-01T11:05:20.762Z,29.640
2023-04-01T11:10:15.922Z,29.634
2023-04-01T11:15:19.011Z,29.638
2023-04-01T11:20:19.041Z,29.630
2023-04-01T11:25:16.044Z,29.621
2023-04-01T11:30:16.021Z,29.643
2023-04-01T11:35:16.088Z,29.639
2023-04-01T11:40:19.034Z,29.634
2023-04-01T11:45:19.047Z,29.633
2023-04-01T11:50:19.059Z,29.626
2023-04-01T11:55:19.008Z,29.623
2023-04-01T12:00:19.021Z,29.622
2023-04-01T12:05:16.078Z,29.617
2023-04-01T12:10:19.118Z,29.614
2023-04-01T12:15:19.055Z,29.608
2023-04-01T12:20:16.102Z,29.602
2023-04-01T12:25:24.564Z,29.596
2023-04-01T12:30:19.032Z,29.589
2023-04-01T12:35:19.132Z,29.594
2023-04-01T12:40:19.125Z,29.592
2023-04-01T12:45:16.096Z,29.584
2023-04-01T12:50:19.101Z,29.587
2023-04-01T12:55:16.110Z,29.584
2023-04-01T13:00:16.094Z,29.578
2023-04-01T13:05:19.092Z,29.571
2023-04-01T13:10:16.085Z,29.565
2023-04-01T13:15:19.095Z,29.567
2023-04-01T13:20:19.133Z,29.560
2023-04-01T13:25:19.129Z,29.554
2023-04-01T13:30:19.088Z,29.554
2023-04-01T13:35:19.117Z,29.544
2023-04-01T13:40:19.071Z,29.534
2023-04-01T13:45:19.059Z,29.532
2023-04-01T13:50:16.128Z,29.528
2023-04-01T13:55:15.934Z,29.523
2023-04-01T14:00:19.108Z,29.520
2023-04-01T14:05:22.337Z,29.514
2023-04-01T14:10:16.098Z,29.510
2023-04-01T14:15:19.116Z,29.502
2023-04-01T14:20:19.171Z,29.502
2023-04-01T14:25:15.959Z,29.496
2023-04-01T14:30:19.145Z,29.491
2023-04-01T14:35:19.143Z,29.493
2023-04-01T14:40:19.094Z,29.485
2023-04-01T14:45:19.128Z,29.480
2023-04-01T14:50:16.173Z,29.471
2023-04-01T14:55:16.257Z,29.468
2023-04-01T15:00:16.241Z,29.469
2023-04-01T15:05:19.189Z,29.472
2023-04-01T15:10:19.192Z,29.465
2023-04-01T15:15:16.139Z,29.463
2023-04-01T15:20:16.187Z,29.455
2023-04-01T15:25:16.220Z,29.455
2023-04-01T15:30:16.230Z,29.449
2023-04-01T15:35:19.197Z,29.450
2023-04-01T15:40:16.167Z,29.448
2023-04-01T15:45:19.202Z,29.439
2023-04-01T15:50:19.214Z,29.432
2023-04-01T15:55:16.228Z,29.427
2023-04-01T16:00:19.194Z,29.423
2023-04-01T16:05:16.187Z,29.422
2023-04-01T16:10:16.197Z,29.421
2023-04-01T16:15:19.179Z,29.418
2023-04-01T16:20:19.186Z,29.419
2023-04-01T16:25:19.180Z,29.414
2023-04-01T16:30:19.170Z,29.409
2023-04-01T16:35:16.237Z,29.405
2023-04-01T16:40:19.165Z,29.400
2023-04-01T16:45:19.205Z,29.394
2023-04-01T16:50:16.226Z,29.393
2023-04-01T16:55:19.195Z,29.393
2023-04-01T17:00:19.208Z,29.392
2023-04-01T17:05:19.179Z,29.389
2023-04-01T17:10:19.357Z,29.382
2023-04-01T17:15:19.533Z,29.376
2023-04-01T17:20:19.222Z,29.375
2023-04-01T17:25:16.304Z,29.370
2023-04-01T17:30:19.300Z,29.365
2023-04-01T17:35:19.202Z,29.363
2023-04-01T17:40:16.038Z,29.359
2023-04-01T17:45:16.082Z,29.353
2023-04-01T17:50:19.259Z,29.343
2023-04-01T17:55:19.512Z,29.331
2023-04-01T18:00:19.206Z,29.334
2023-04-01T18:05:16.293Z,29.320
2023-04-01T18:10:19.273Z,29.323
2023-04-01T18:15:19.211Z,29.328
2023-04-01T18:20:16.225Z,29.296
2023-04-01T18:25:19.250Z,29.302
2023-04-01T18:30:19.303Z,29.297
2023-04-01T18:35:19.188Z,29.286
2023-04-01T18:40:16.321Z,29.273
2023-04-01T18:45:19.256Z,29.288
2023-04-01T18:50:19.262Z,29.287
2023-04-01T18:55:19.221Z,29.286
2023-04-01T19:00:17.181Z,29.284
2023-04-01T19:05:16.326Z,29.270
2023-04-01T19:10:19.304Z,29.279
2023-04-01T19:15:16.307Z,29.280
2023-04-01T19:20:16.311Z,29.271
2023-04-01T19:25:16.401Z,29.277
2023-04-01T19:30:19.254Z,29.269
2023-04-01T19:35:16.332Z,29.273
2023-04-01T19:40:19.349Z,29.274
2023-04-01T19:45:16.278Z,29.246
2023-04-01T19:50:19.362Z,29.246
2023-04-01T19:55:19.281Z,29.240
2023-04-01T20:00:19.263Z,29.241
2023-04-01T20:05:16.853Z,29.249
2023-04-01T20:10:19.317Z,29.244
2023-04-01T20:15:19.338Z,29.234
2023-04-01T20:20:19.303Z,29.237
2023-04-01T20:25:16.344Z,29.237
2023-04-01T20:30:19.323Z,29.238
2023-04-01T20:35:19.275Z,29.240
2023-04-01T20:40:19.287Z,29.238
2023-04-01T20:45:19.246Z,29.242
2023-04-01T20:50:19.357Z,29.241
2023-04-01T20:55:16.346Z,29.240
2023-04-01T21:00:16.119Z,29.241
2023-04-01T21:05:19.363Z,29.241
2023-04-01T21:10:19.404Z,29.231
2023-04-01T21:15:16.352Z,29.228
2023-04-01T21:20:19.320Z,29.219
2023-04-01T21:25:16.329Z,29.225
2023-04-01T21:30:19.372Z,29.226
2023-04-01T21:35:19.289Z,29.229
2023-04-01T21:40:19.287Z,29.230
2023-04-01T21:45:19.310Z,29.236
2023-04-01T21:50:16.388Z,29.236
2023-04-01T21:55:16.388Z,29.240
2023-04-01T22:00:19.352Z,29.245
2023-04-01T22:05:19.308Z,29.244
2023-04-01T22:10:16.453Z,29.247
2023-04-01T22:15:16.371Z,29.246
2023-04-01T22:20:19.398Z,29.245
2023-04-01T22:25:19.352Z,29.246
2023-04-01T22:30:19.349Z,29.248
2023-04-01T22:35:19.350Z,29.248
2023-04-01T22:40:19.303Z,29.248
2023-04-01T22:45:19.404Z,29.246
2023-04-01T22:50:19.335Z,29.245
2023-04-01T22:55:19.363Z,29.244
2023-04-01T23:00:16.481Z,29.242
2023-04-01T23:05:16.410Z,29.241
2023-04-01T23:10:19.416Z,29.241
2023-04-01T23:15:19.366Z,29.242
2023-04-01T23:20:16.474Z,29.242
2023-04-01T23:25:19.366Z,29.242
2023-04-01T23:30:16.419Z,29.240
2023-04-01T23:35:19.401Z,29.240
2023-04-01T23:40:19.386Z,29.238
2023-04-01T23:45:19.397Z,29.235
2023-04-01T23:50:19.362Z,29.233
2023-04-01T23:55:19.419Z,29.235
